Destinations Turin Airport

Turin Airport (LIMF / TRN)

Flights to Turin Airport

Flight number From ETE Dispatch
SPY-426 EHGG Groningen Airport Eelde 01:55

Flights from Turin Airport

Flight number To ETE Dispatch
SPY-427 EHGG Groningen Airport Eelde 01:55
About

Turin Airport facts

Turin Airport is located in Torino at an elevation of 301.4 meters or 989 feet.

Currently, Speedy Airlines serves 2 flights to and from Turin Airport.

Detailed airport info

Route map

Weather

Current weather

METAR

METAR

Metar data retrieved Sunday, 21 July 2024 at 20:25 UTC

LIMF 211950Z 34005KT CAVOK 23/20 Q1011
Wind Temperature
5 kt 23c